createdAt,value
2018-09-21T00:00:30.259Z,11.40
2018-09-21T00:02:57.914Z,10.63
2018-09-21T00:05:25.650Z,11.00
2018-09-21T00:07:53.365Z,11.40
2018-09-21T00:10:21.157Z,12.10
2018-09-21T00:12:48.881Z,13.30
2018-09-21T00:15:16.513Z,10.77
2018-09-21T00:17:44.249Z,10.53
2018-09-21T00:20:12.070Z,12.10
2018-09-21T00:22:39.718Z,10.00
2018-09-21T00:25:07.362Z,11.70
2018-09-21T00:27:35.088Z,11.07
2018-09-21T00:30:02.996Z,11.20
2018-09-21T00:32:30.911Z,11.47
2018-09-21T00:34:58.661Z,11.50
2018-09-21T00:37:26.458Z,12.43
2018-09-21T00:39:54.308Z,12.27
2018-09-21T00:42:22.157Z,10.83
2018-09-21T00:44:50.590Z,11.70
2018-09-21T00:47:18.354Z,11.80
2018-09-21T00:49:46.234Z,10.90
2018-09-21T00:52:14.187Z,11.50
2018-09-21T00:54:42.000Z,10.30
2018-09-21T00:57:09.931Z,10.97
2018-09-21T00:59:38.130Z,12.67
2018-09-21T01:02:05.905Z,11.13
2018-09-21T01:04:39.869Z,11.07
2018-09-21T01:07:07.568Z,11.53
2018-09-21T01:09:35.309Z,10.57
2018-09-21T01:12:03.153Z,10.57
2018-09-21T01:14:30.853Z,12.40
2018-09-21T01:16:58.705Z,11.70
2018-09-21T01:19:26.568Z,11.30
2018-09-21T01:21:54.677Z,12.70
2018-09-21T01:24:22.441Z,11.00
2018-09-21T01:26:50.375Z,11.03
2018-09-21T01:29:18.283Z,11.97
2018-09-21T01:31:46.559Z,11.53
2018-09-21T01:34:15.010Z,11.90
2018-09-21T01:36:42.926Z,11.90
2018-09-21T01:39:11.424Z,11.30
2018-09-21T01:41:39.559Z,12.10
2018-09-21T01:44:08.867Z,10.70
2018-09-21T01:46:36.979Z,10.50
2018-09-21T01:49:06.018Z,11.20
2018-09-21T01:51:33.853Z,11.60
2018-09-21T01:54:01.899Z,11.17
2018-09-21T01:56:29.858Z,13.90
2018-09-21T01:58:57.885Z,11.33
2018-09-21T02:01:25.934Z,12.40
2018-09-21T02:03:54.003Z,11.00
2018-09-21T02:06:22.011Z,11.50
2018-09-21T02:08:50.470Z,12.83
2018-09-21T02:11:18.682Z,12.17
2018-09-21T02:13:46.609Z,12.10
2018-09-21T02:16:14.701Z,12.30
2018-09-21T02:18:42.560Z,12.07
2018-09-21T02:21:10.510Z,12.83
2018-09-21T02:23:38.546Z,11.90
2018-09-21T02:26:06.510Z,12.90
2018-09-21T02:28:34.425Z,11.00
2018-09-21T02:31:02.278Z,12.37
2018-09-21T02:33:30.161Z,11.40
2018-09-21T02:35:58.214Z,13.60
2018-09-21T02:38:26.085Z,12.77
2018-09-21T02:40:53.845Z,13.30
2018-09-21T02:43:21.536Z,11.70
2018-09-21T02:45:49.450Z,13.13
2018-09-21T02:48:17.208Z,12.27
2018-09-21T02:50:44.943Z,11.63
2018-09-21T02:53:12.611Z,13.70
2018-09-21T02:55:40.480Z,12.00
2018-09-21T02:58:08.199Z,10.97
2018-09-21T03:00:36.035Z,12.30
2018-09-21T03:03:03.676Z,12.40
2018-09-21T03:05:31.556Z,12.70
2018-09-21T03:07:59.345Z,13.40
2018-09-21T03:10:27.167Z,11.03
2018-09-21T03:12:54.973Z,13.10
2018-09-21T03:15:24.074Z,12.73
2018-09-21T03:17:51.877Z,11.60
2018-09-21T03:20:19.663Z,12.63
2018-09-21T03:22:47.622Z,13.43
2018-09-21T03:25:15.355Z,13.33
2018-09-21T03:27:43.163Z,12.10
2018-09-21T03:30:11.004Z,12.70
2018-09-21T03:32:38.927Z,12.40
2018-09-21T03:35:07.152Z,12.60
2018-09-21T03:37:34.889Z,12.30
2018-09-21T03:40:02.691Z,11.83
2018-09-21T03:42:30.454Z,13.17
2018-09-21T03:44:58.144Z,12.40
2018-09-21T03:47:25.987Z,11.30
2018-09-21T03:49:53.677Z,12.63
2018-09-21T03:52:21.394Z,12.40
2018-09-21T03:54:49.249Z,12.60
2018-09-21T03:57:17.157Z,11.73
2018-09-21T03:59:45.013Z,12.30
2018-09-21T04:02:12.841Z,13.00
2018-09-21T04:04:41.532Z,12.60
2018-09-21T04:07:09.822Z,13.10
2018-09-21T04:09:37.683Z,14.00
2018-09-21T04:12:05.449Z,13.00
2018-09-21T04:14:33.233Z,12.50
2018-09-21T04:17:01.066Z,13.53
2018-09-21T04:19:28.916Z,13.10
2018-09-21T04:21:56.959Z,12.27
2018-09-21T04:24:24.937Z,13.53
2018-09-21T04:26:52.728Z,12.80
2018-09-21T04:29:20.530Z,12.63
2018-09-21T04:31:48.524Z,13.63
2018-09-21T04:34:16.312Z,13.37
2018-09-21T04:36:44.177Z,12.30
2018-09-21T04:39:13.005Z,12.90
2018-09-21T04:41:40.973Z,13.20
2018-09-21T04:44:09.177Z,12.57
2018-09-21T04:46:37.633Z,12.13
2018-09-21T04:49:05.641Z,13.37
2018-09-21T04:51:33.674Z,12.67
2018-09-21T04:54:01.472Z,11.17
2018-09-21T04:56:29.226Z,13.20
2018-09-21T04:58:57.055Z,13.10
2018-09-21T05:01:25.225Z,12.30
2018-09-21T05:03:53.243Z,12.60
2018-09-21T05:06:21.248Z,13.10
2018-09-21T05:08:49.853Z,12.17
2018-09-21T05:11:19.571Z,14.27
2018-09-21T05:13:47.889Z,14.10
2018-09-21T05:16:16.568Z,14.47
2018-09-21T05:18:51.622Z,14.30
2018-09-21T05:21:21.131Z,13.30
2018-09-21T05:23:51.007Z,12.93
2018-09-21T05:26:19.840Z,12.90
2018-09-21T05:28:47.934Z,14.47
2018-09-21T05:31:16.390Z,14.30
2018-09-21T05:33:44.555Z,13.90
2018-09-21T05:36:20.184Z,13.90
2018-09-21T05:38:49.631Z,12.80
2018-09-21T05:41:17.361Z,14.00
2018-09-21T05:43:45.406Z,13.57
2018-09-21T05:46:13.453Z,14.80
2018-09-21T05:48:44.672Z,13.87
2018-09-21T05:51:12.677Z,13.90
2018-09-21T05:53:41.035Z,13.43
2018-09-21T05:56:08.955Z,15.27
2018-09-21T05:58:36.779Z,15.27
2018-09-21T06:01:04.818Z,14.30
2018-09-21T06:03:33.021Z,14.27
2018-09-21T06:06:00.842Z,13.60
2018-09-21T06:08:28.822Z,13.50
2018-09-21T06:10:56.641Z,12.80
2018-09-21T06:13:24.514Z,13.57
2018-09-21T06:15:52.368Z,15.03
2018-09-21T06:18:20.273Z,14.17
2018-09-21T06:20:48.751Z,15.60
2018-09-21T06:23:16.698Z,13.50
2018-09-21T06:25:51.796Z,15.03
2018-09-21T06:28:19.888Z,13.63
2018-09-21T06:30:48.552Z,14.70
2018-09-21T06:33:16.426Z,13.87
2018-09-21T06:35:47.689Z,15.10
2018-09-21T06:38:16.008Z,13.17
2018-09-21T06:40:44.462Z,14.00
2018-09-21T06:43:13.414Z,13.60
2018-09-21T06:45:41.321Z,15.97
2018-09-21T06:48:09.109Z,15.90
2018-09-21T06:50:36.926Z,15.23
2018-09-21T06:53:05.351Z,14.87
2018-09-21T06:55:33.117Z,16.20
2018-09-21T06:58:00.902Z,14.47
2018-09-21T07:00:28.625Z,13.90
2018-09-21T07:02:57.337Z,13.37
2018-09-21T07:05:25.073Z,14.97
2018-09-21T07:07:53.005Z,13.53
2018-09-21T07:10:20.728Z,13.20
2018-09-21T07:12:48.483Z,14.37
2018-09-21T07:15:16.213Z,15.23
2018-09-21T07:17:43.936Z,13.37
2018-09-21T07:20:11.599Z,13.90
2018-09-21T07:22:39.301Z,14.47
2018-09-21T07:25:07.118Z,14.47
2018-09-21T07:27:34.861Z,12.60
2018-09-21T07:30:02.706Z,12.73
2018-09-21T07:32:30.537Z,13.23
2018-09-21T07:34:58.371Z,14.27
2018-09-21T07:37:26.237Z,13.07
2018-09-21T07:39:54.009Z,12.80
2018-09-21T07:42:21.681Z,12.20
2018-09-21T07:44:49.357Z,12.33
2018-09-21T07:47:17.165Z,12.17
2018-09-21T07:49:44.795Z,11.30
2018-09-21T07:52:12.537Z,11.57
2018-09-21T07:54:40.247Z,12.73
2018-09-21T07:57:08.020Z,11.70
2018-09-21T07:59:35.681Z,11.60
2018-09-21T08:02:03.432Z,12.23
2018-09-21T08:04:31.070Z,11.10
2018-09-21T08:06:58.805Z,11.37
2018-09-21T08:09:26.525Z,11.50
2018-09-21T08:11:54.360Z,12.20
2018-09-21T08:14:22.110Z,10.13
2018-09-21T08:16:49.910Z,12.23
2018-09-21T08:19:20.663Z,12.00
2018-09-21T08:21:48.370Z,11.40
2018-09-21T08:24:16.169Z,12.27
2018-09-21T08:26:43.936Z,10.53
2018-09-21T08:29:11.729Z,10.47
2018-09-21T08:31:40.561Z,11.63
2018-09-21T08:34:08.526Z,13.80
2018-09-21T08:36:36.225Z,12.57
2018-09-21T08:39:07.004Z,14.63
2018-09-21T08:41:35.070Z,13.67
2018-09-21T08:44:02.781Z,14.17
2018-09-21T08:46:30.917Z,14.17
2018-09-21T08:48:59.135Z,13.97
2018-09-21T08:51:27.450Z,11.83
2018-09-21T08:54:08.393Z,13.00
2018-09-21T08:56:36.804Z,12.37
2018-09-21T08:59:05.079Z,12.03
2018-09-21T09:01:34.146Z,11.83
2018-09-21T09:04:02.137Z,10.80
2018-09-21T09:06:29.969Z,11.27
2018-09-21T09:08:57.836Z,9.20
2018-09-21T09:11:25.662Z,8.43
2018-09-21T09:13:53.498Z,8.90
2018-09-21T09:16:21.201Z,7.10
2018-09-21T09:18:49.056Z,7.50
2018-09-21T09:21:16.989Z,6.70
2018-09-21T09:23:44.838Z,7.33
2018-09-21T09:26:12.757Z,5.97
2018-09-21T09:28:40.646Z,7.17
2018-09-21T09:31:08.466Z,6.50
2018-09-21T09:33:36.148Z,6.80
2018-09-21T09:36:03.832Z,6.40
2018-09-21T09:38:31.597Z,6.00
2018-09-21T09:40:59.433Z,8.55
2018-09-21T09:43:27.394Z,6.10
2018-09-21T09:45:55.343Z,7.07
2018-09-21T09:48:24.518Z,6.73
2018-09-21T09:50:52.387Z,6.77
2018-09-21T09:53:20.261Z,7.10
2018-09-21T09:55:48.264Z,6.47
2018-09-21T09:58:16.403Z,6.27
2018-09-21T10:00:49.586Z,6.67
2018-09-21T10:03:17.455Z,6.37
2018-09-21T10:05:45.350Z,6.73
2018-09-21T10:08:13.701Z,6.53
2018-09-21T10:10:42.046Z,5.63
2018-09-21T10:13:10.578Z,6.77
2018-09-21T10:15:38.784Z,5.83
2018-09-21T10:18:06.925Z,6.40
2018-09-21T10:20:34.984Z,6.93
2018-09-21T10:23:03.270Z,6.50
2018-09-21T10:25:32.165Z,7.07
2018-09-21T10:28:00.721Z,7.17
2018-09-21T10:30:28.678Z,7.00
2018-09-21T10:32:56.621Z,6.47
2018-09-21T10:35:24.619Z,5.43
2018-09-21T10:37:52.656Z,6.10
2018-09-21T10:40:20.740Z,7.00
2018-09-21T10:42:48.769Z,6.77
2018-09-21T10:45:16.645Z,6.93
2018-09-21T10:47:45.659Z,6.37
2018-09-21T10:50:13.706Z,6.57
2018-09-21T10:52:41.619Z,7.23
2018-09-21T10:55:09.658Z,7.50
2018-09-21T10:57:37.525Z,7.27
2018-09-21T11:00:05.962Z,6.63
2018-09-21T11:02:34.207Z,6.70
2018-09-21T11:05:02.261Z,6.53
2018-09-21T11:07:30.185Z,7.20
2018-09-21T11:09:58.871Z,6.67
2018-09-21T11:12:26.937Z,7.00
2018-09-21T11:14:55.037Z,6.80
2018-09-21T11:17:22.939Z,7.10
2018-09-21T11:19:51.580Z,6.50
2018-09-21T11:22:19.678Z,6.43
2018-09-21T11:24:48.184Z,6.87
2018-09-21T11:27:15.985Z,6.63
2018-09-21T11:29:43.916Z,7.10
2018-09-21T11:32:12.131Z,6.33
2018-09-21T11:34:40.137Z,6.27
2018-09-21T11:37:08.835Z,6.80
2018-09-21T11:39:37.722Z,6.43
2018-09-21T11:42:05.909Z,6.60
2018-09-21T11:44:34.166Z,5.90
2018-09-21T11:47:01.928Z,7.57
2018-09-21T11:49:29.580Z,6.37
2018-09-21T11:51:57.228Z,5.50
2018-09-21T11:54:24.917Z,5.57
2018-09-21T11:56:52.521Z,6.00
2018-09-21T11:59:21.697Z,6.00
2018-09-21T12:01:50.027Z,6.77
2018-09-21T12:04:18.918Z,7.13
2018-09-21T12:06:50.527Z,6.97
2018-09-21T12:09:22.020Z,7.00
2018-09-21T12:11:50.569Z,6.47
2018-09-21T12:14:18.273Z,6.90
2018-09-21T12:16:48.005Z,6.63
2018-09-21T12:19:16.226Z,6.30
2018-09-21T12:21:45.395Z,7.03
2018-09-21T12:24:14.776Z,10.80
2018-09-21T12:26:43.673Z,7.23
2018-09-21T12:29:12.432Z,7.53
2018-09-21T12:31:42.288Z,6.40
2018-09-21T12:34:10.557Z,6.90
2018-09-21T12:36:38.677Z,6.23
2018-09-21T12:39:09.505Z,5.83
2018-09-21T12:41:37.367Z,6.17
2018-09-21T12:44:06.203Z,6.07
2018-09-21T12:46:34.207Z,6.33
2018-09-21T12:49:03.720Z,6.30
2018-09-21T12:51:33.029Z,6.03
2018-09-21T12:54:01.354Z,6.03
2018-09-21T12:56:29.127Z,6.67
2018-09-21T12:58:57.492Z,6.20
2018-09-21T13:01:25.466Z,5.60
2018-09-21T13:03:53.402Z,6.90
2018-09-21T13:06:22.481Z,7.07
2018-09-21T13:08:50.978Z,7.80
2018-09-21T13:11:22.105Z,6.70
2018-09-21T13:13:50.343Z,6.80
2018-09-21T13:16:18.253Z,5.97
2018-09-21T13:18:46.448Z,7.10
2018-09-21T13:21:15.857Z,7.10
2018-09-21T13:23:43.906Z,7.07
2018-09-21T13:26:12.681Z,8.00
2018-09-21T13:28:43.872Z,10.37
2018-09-21T13:31:13.473Z,13.87
2018-09-21T13:33:46.799Z,8.10
2018-09-21T13:36:23.265Z,9.20
2018-09-21T13:39:01.484Z,28.53
2018-09-21T13:41:31.991Z,12.73
2018-09-21T13:44:02.877Z,16.10
2018-09-21T13:46:38.240Z,7.10
2018-09-21T13:49:07.053Z,5.93
2018-09-21T13:51:36.530Z,6.40
2018-09-21T13:54:08.405Z,5.30
2018-09-21T13:56:38.162Z,9.73
2018-09-21T13:59:06.580Z,8.03
2018-09-21T14:01:35.255Z,12.10
2018-09-21T14:04:03.736Z,23.93
2018-09-21T14:06:34.000Z,10.10
2018-09-21T14:09:02.735Z,11.07
2018-09-21T14:11:31.222Z,8.00
2018-09-21T14:13:59.923Z,30.80
2018-09-21T14:16:28.337Z,8.63
2018-09-21T14:18:56.751Z,25.27
2018-09-21T14:21:30.191Z,20.10
2018-09-21T14:23:58.568Z,6.73
2018-09-21T14:26:32.285Z,15.70
2018-09-21T14:29:08.067Z,6.97
2018-09-21T14:31:39.302Z,35.87
2018-09-21T14:34:10.029Z,5.20
2018-09-21T14:36:41.298Z,11.93
2018-09-21T14:39:16.682Z,14.87
2018-09-21T14:41:45.429Z,8.10
2018-09-21T14:44:15.202Z,8.17
2018-09-21T14:46:52.469Z,4.97
2018-09-21T14:49:22.395Z,7.33
2018-09-21T14:51:53.082Z,45.07
2018-09-21T14:54:22.242Z,19.70
2018-09-21T14:56:57.373Z,4.10
2018-09-21T14:59:35.994Z,31.87
2018-09-21T15:02:07.671Z,10.07
2018-09-21T15:04:36.804Z,22.63
2018-09-21T15:07:14.526Z,9.77
2018-09-21T15:09:42.895Z,62.73
2018-09-21T15:12:12.488Z,4.33
2018-09-21T15:14:40.420Z,3.77
2018-09-21T15:17:08.950Z,3.90
2018-09-21T15:22:14.371Z,3.30
2018-09-21T15:24:42.903Z,2.87
2018-09-21T15:27:15.882Z,3.87
2018-09-21T15:29:48.225Z,3.53
2018-09-21T15:32:19.164Z,3.47
2018-09-21T15:34:50.630Z,10.50
2018-09-21T15:37:20.609Z,3.70
2018-09-21T15:39:52.657Z,3.83
2018-09-21T15:42:24.931Z,3.33
2018-09-21T15:44:55.693Z,2.97
2018-09-21T15:47:25.841Z,3.37
2018-09-21T15:49:54.807Z,3.53
2018-09-21T15:55:08.669Z,2.77
2018-09-21T15:57:39.425Z,2.60
2018-09-21T16:00:08.360Z,3.40
2018-09-21T16:02:36.762Z,4.13
2018-09-21T16:05:05.149Z,3.40
2018-09-21T16:07:33.332Z,2.83
2018-09-21T16:10:01.631Z,2.77
2018-09-21T16:12:30.569Z,1.57
2018-09-21T16:14:58.553Z,1.97
2018-09-21T16:17:26.788Z,1.60
2018-09-21T16:19:56.434Z,1.20
2018-09-21T16:22:25.569Z,1.33
2018-09-21T16:24:54.004Z,1.03
2018-09-21T16:27:29.447Z,1.03
2018-09-21T16:29:58.960Z,1.13
2018-09-21T16:32:26.662Z,0.80
2018-09-21T16:34:54.376Z,1.00
2018-09-21T16:37:26.486Z,0.70
2018-09-21T16:39:54.258Z,1.10
2018-09-21T16:42:21.992Z,0.97
2018-09-21T16:44:50.230Z,0.50
2018-09-21T16:47:17.802Z,0.70
2018-09-21T16:49:46.562Z,0.70
2018-09-21T16:52:19.728Z,0.70
2018-09-21T16:54:47.438Z,0.63
2018-09-21T16:57:15.182Z,0.70
2018-09-21T16:59:44.149Z,0.80
2018-09-21T17:02:11.905Z,0.60
2018-09-21T17:04:41.530Z,0.90
2018-09-21T17:07:16.276Z,0.80
2018-09-21T17:09:48.960Z,0.67
2018-09-21T17:12:19.253Z,0.60
2018-09-21T17:14:47.180Z,0.77
2018-09-21T17:17:15.527Z,0.90
2018-09-21T17:19:43.637Z,1.30
2018-09-21T17:22:17.995Z,0.90
2018-09-21T17:24:46.173Z,1.00
2018-09-21T17:27:14.335Z,1.50
2018-09-21T17:29:44.817Z,1.57
2018-09-21T17:32:12.803Z,1.47
2018-09-21T17:34:41.498Z,0.80
2018-09-21T17:37:15.405Z,1.10
2018-09-21T17:39:49.493Z,1.50
2018-09-21T17:42:26.113Z,1.37
2018-09-21T17:44:55.158Z,1.20
2018-09-21T17:47:26.803Z,1.10
2018-09-21T17:49:55.945Z,1.37
2018-09-21T17:52:26.241Z,1.40
2018-09-21T17:54:56.414Z,1.23
2018-09-21T17:57:27.098Z,1.30
2018-09-21T17:59:55.464Z,1.40
2018-09-21T18:02:24.621Z,1.20
2018-09-21T18:04:55.660Z,1.60
2018-09-21T18:07:24.847Z,1.20
2018-09-21T18:09:54.874Z,1.40
2018-09-21T18:12:23.606Z,1.83
2018-09-21T18:14:53.649Z,2.00
2018-09-21T18:17:22.995Z,1.47
2018-09-21T18:19:51.626Z,1.80
2018-09-21T18:22:19.836Z,1.60
2018-09-21T18:24:47.701Z,1.93
2018-09-21T18:27:15.874Z,1.70
2018-09-21T18:29:43.817Z,2.07
2018-09-21T18:32:16.875Z,1.40
2018-09-21T18:34:44.542Z,1.60
2018-09-21T18:37:12.253Z,2.20
2018-09-21T18:39:43.405Z,1.90
2018-09-21T18:42:11.129Z,1.60
2018-09-21T18:44:40.241Z,1.70
2018-09-21T18:47:08.323Z,1.57
2018-09-21T18:49:36.126Z,1.87
2018-09-21T18:52:04.512Z,2.40
2018-09-21T18:54:32.257Z,1.87
2018-09-21T18:57:00.341Z,1.83
2018-09-21T18:59:28.218Z,2.70
2018-09-21T19:01:56.081Z,2.20
2018-09-21T19:04:23.916Z,2.63
2018-09-21T19:06:51.771Z,1.53
2018-09-21T19:09:19.494Z,1.30
2018-09-21T19:11:47.404Z,2.40
2018-09-21T19:14:15.291Z,3.10
2018-09-21T19:16:43.509Z,2.17
2018-09-21T19:19:11.514Z,1.97
2018-09-21T19:21:39.289Z,1.70
2018-09-21T19:24:07.090Z,2.10
2018-09-21T19:26:34.798Z,1.43
2018-09-21T19:29:02.605Z,1.63
2018-09-21T19:31:30.321Z,1.67
2018-09-21T19:33:58.022Z,1.60
2018-09-21T19:36:26.163Z,1.70
2018-09-21T19:38:54.253Z,1.43
2018-09-21T19:41:22.099Z,1.40
2018-09-21T19:43:50.242Z,1.77
2018-09-21T19:46:18.183Z,2.13
2018-09-21T19:48:45.961Z,1.83
2018-09-21T19:51:16.205Z,1.67
2018-09-21T19:53:44.329Z,1.80
2018-09-21T19:56:13.461Z,2.20
2018-09-21T19:58:45.104Z,1.50
2018-09-21T20:01:13.909Z,1.87
2018-09-21T20:03:41.694Z,2.00
2018-09-21T20:06:09.468Z,2.27
2018-09-21T20:08:37.191Z,1.87
2018-09-21T20:11:05.184Z,2.60
2018-09-21T20:13:33.289Z,2.70
2018-09-21T20:16:01.042Z,5.53
2018-09-21T20:18:28.753Z,1.83
2018-09-21T20:20:56.665Z,1.97
2018-09-21T20:23:24.925Z,1.70
2018-09-21T20:25:53.026Z,1.53
2018-09-21T20:28:21.053Z,2.63
2018-09-21T20:30:54.450Z,1.70
2018-09-21T20:33:28.976Z,1.70
2018-09-21T20:35:57.653Z,1.73
2018-09-21T20:38:25.816Z,1.87
2018-09-21T20:40:53.468Z,1.70
2018-09-21T20:43:21.190Z,1.47
2018-09-21T20:45:48.964Z,2.90
2018-09-21T20:48:16.581Z,3.03
2018-09-21T20:50:44.304Z,1.40
2018-09-21T20:53:13.017Z,2.03
2018-09-21T20:55:40.668Z,1.50
2018-09-21T20:58:08.377Z,1.70
2018-09-21T21:00:36.177Z,1.70
2018-09-21T21:03:04.054Z,1.70
2018-09-21T21:05:32.093Z,2.17
2018-09-21T21:07:59.877Z,2.90
2018-09-21T21:10:27.553Z,4.60
2018-09-21T21:12:55.201Z,1.43
2018-09-21T21:15:23.000Z,1.70
2018-09-21T21:17:50.797Z,2.00
2018-09-21T21:20:19.313Z,2.23
2018-09-21T21:22:47.132Z,1.40
2018-09-21T21:25:14.885Z,1.70
2018-09-21T21:27:42.734Z,1.57
2018-09-21T21:30:10.701Z,1.73
2018-09-21T21:32:38.752Z,2.17
2018-09-21T21:35:06.523Z,1.90
2018-09-21T21:37:34.578Z,1.60
2018-09-21T21:40:02.376Z,2.00
2018-09-21T21:42:30.402Z,1.67
2018-09-21T21:44:58.586Z,1.80
2018-09-21T21:47:26.506Z,1.90
2018-09-21T21:49:54.353Z,1.77
2018-09-21T21:52:22.333Z,2.63
2018-09-21T21:54:50.201Z,1.50
2018-09-21T21:57:17.942Z,2.00
2018-09-21T21:59:45.668Z,1.97
2018-09-21T22:02:13.428Z,2.10
2018-09-21T22:04:41.565Z,2.50
2018-09-21T22:07:10.129Z,1.83
2018-09-21T22:09:37.704Z,1.87
2018-09-21T22:12:10.962Z,1.80
2018-09-21T22:14:38.581Z,2.00
2018-09-21T22:17:06.517Z,1.80
2018-09-21T22:19:34.110Z,1.80
2018-09-21T22:22:01.773Z,1.80
2018-09-21T22:24:29.365Z,1.50
2018-09-21T22:26:57.013Z,1.60
2018-09-21T22:29:24.620Z,1.90
2018-09-21T22:31:52.261Z,1.53
2018-09-21T22:34:19.856Z,1.50
2018-09-21T22:36:47.464Z,3.20
2018-09-21T22:39:15.089Z,1.90
2018-09-21T22:41:42.697Z,3.13
2018-09-21T22:44:10.269Z,1.77
2018-09-21T22:46:37.872Z,1.90
2018-09-21T22:49:08.511Z,1.83
2018-09-21T22:51:36.118Z,1.87
2018-09-21T22:54:03.730Z,1.77
2018-09-21T22:56:31.372Z,2.00
2018-09-21T22:58:58.960Z,1.40
2018-09-21T23:01:26.537Z,1.60
2018-09-21T23:03:54.169Z,1.70
2018-09-21T23:06:21.830Z,1.70
2018-09-21T23:08:49.437Z,2.03
2018-09-21T23:11:17.041Z,1.90
2018-09-21T23:13:44.634Z,1.90
2018-09-21T23:16:12.217Z,1.90
2018-09-21T23:18:39.824Z,1.90
2018-09-21T23:21:07.505Z,1.73
2018-09-21T23:23:35.123Z,2.83
2018-09-21T23:26:02.725Z,1.77
2018-09-21T23:28:30.354Z,1.90
2018-09-21T23:30:58.505Z,2.20
2018-09-21T23:33:26.154Z,1.93
2018-09-21T23:35:53.776Z,2.23
2018-09-21T23:38:21.404Z,2.20
2018-09-21T23:40:49.006Z,1.90
2018-09-21T23:43:16.633Z,1.73
2018-09-21T23:45:44.237Z,2.10
2018-09-21T23:48:11.844Z,2.40
2018-09-21T23:50:39.421Z,1.73
2018-09-21T23:53:07.060Z,1.77
2018-09-21T23:55:34.674Z,1.93
2018-09-21T23:58:02.322Z,1.60
